sensor_id;sensor_type;location;lat;lon;timestamp;P1;durP1;ratioP1;P2;durP2;ratioP2
58308;SDS011;44117;57.142;24.826;2022-11-20T00:00:54;9.60;;;5.00;;
58308;SDS011;44117;57.142;24.826;2022-11-20T00:03:21;9.30;;;5.30;;
58308;SDS011;44117;57.142;24.826;2022-11-20T00:05:49;9.27;;;5.22;;
58308;SDS011;44117;57.142;24.826;2022-11-20T00:08:16;9.27;;;5.32;;
58308;SDS011;44117;57.142;24.826;2022-11-20T00:10:43;11.73;;;5.63;;
58308;SDS011;44117;57.142;24.826;2022-11-20T00:13:10;9.98;;;5.50;;
58308;SDS011;44117;57.142;24.826;2022-11-20T00:15:37;12.00;;;6.03;;
58308;SDS011;44117;57.142;24.826;2022-11-20T00:18:04;9.80;;;5.07;;
58308;SDS011;44117;57.142;24.826;2022-11-20T00:20:32;15.75;;;7.25;;
58308;SDS011;44117;57.142;24.826;2022-11-20T00:22:59;13.05;;;6.90;;
58308;SDS011;44117;57.142;24.826;2022-11-20T00:25:26;13.93;;;7.82;;
58308;SDS011;44117;57.142;24.826;2022-11-20T00:27:53;10.52;;;5.78;;
58308;SDS011;44117;57.142;24.826;2022-11-20T00:30:20;10.45;;;5.63;;
58308;SDS011;44117;57.142;24.826;2022-11-20T00:32:47;9.20;;;4.90;;
58308;SDS011;44117;57.142;24.826;2022-11-20T00:35:15;7.35;;;4.25;;
58308;SDS011;44117;57.142;24.826;2022-11-20T00:37:42;8.52;;;4.82;;
58308;SDS011;44117;57.142;24.826;2022-11-20T00:40:09;9.05;;;5.00;;
58308;SDS011;44117;57.142;24.826;2022-11-20T00:42:37;8.07;;;4.60;;
58308;SDS011;44117;57.142;24.826;2022-11-20T00:45:04;6.88;;;4.50;;
58308;SDS011;44117;57.142;24.826;2022-11-20T00:47:32;6.85;;;4.20;;
58308;SDS011;44117;57.142;24.826;2022-11-20T00:49:59;7.88;;;4.70;;
58308;SDS011;44117;57.142;24.826;2022-11-20T00:52:26;6.78;;;4.05;;
58308;SDS011;44117;57.142;24.826;2022-11-20T00:54:53;10.63;;;5.47;;
58308;SDS011;44117;57.142;24.826;2022-11-20T00:57:21;10.45;;;5.07;;
58308;SDS011;44117;57.142;24.826;2022-11-20T00:59:48;11.77;;;5.15;;
58308;SDS011;44117;57.142;24.826;2022-11-20T01:02:15;10.48;;;5.47;;
58308;SDS011;44117;57.142;24.826;2022-11-20T01:04:43;11.88;;;5.88;;
58308;SDS011;44117;57.142;24.826;2022-11-20T01:07:10;11.10;;;5.30;;
58308;SDS011;44117;57.142;24.826;2022-11-20T01:09:37;13.07;;;6.53;;
58308;SDS011;44117;57.142;24.826;2022-11-20T01:12:05;15.50;;;7.47;;
58308;SDS011;44117;57.142;24.826;2022-11-20T01:14:32;15.45;;;7.13;;
58308;SDS011;44117;57.142;24.826;2022-11-20T01:16:59;15.45;;;5.95;;
58308;SDS011;44117;57.142;24.826;2022-11-20T01:19:26;14.25;;;6.47;;
58308;SDS011;44117;57.142;24.826;2022-11-20T01:21:54;17.38;;;7.63;;
58308;SDS011;44117;57.142;24.826;2022-11-20T01:24:21;16.48;;;6.30;;
58308;SDS011;44117;57.142;24.826;2022-11-20T01:26:50;18.58;;;7.40;;
58308;SDS011;44117;57.142;24.826;2022-11-20T01:29:18;11.48;;;6.68;;
58308;SDS011;44117;57.142;24.826;2022-11-20T01:31:48;18.05;;;7.63;;
58308;SDS011;44117;57.142;24.826;2022-11-20T01:34:17;15.07;;;6.75;;
58308;SDS011;44117;57.142;24.826;2022-11-20T01:36:45;15.50;;;6.82;;
58308;SDS011;44117;57.142;24.826;2022-11-20T01:39:14;16.23;;;6.28;;
58308;SDS011;44117;57.142;24.826;2022-11-20T01:41:50;11.20;;;6.22;;
58308;SDS011;44117;57.142;24.826;2022-11-20T01:47:37;12.38;;;5.65;;
58308;SDS011;44117;57.142;24.826;2022-11-20T01:50:14;10.80;;;5.85;;
58308;SDS011;44117;57.142;24.826;2022-11-20T01:52:48;12.65;;;6.13;;
58308;SDS011;44117;57.142;24.826;2022-11-20T01:55:23;8.98;;;5.03;;
58308;SDS011;44117;57.142;24.826;2022-11-20T01:57:54;12.93;;;5.53;;
58308;SDS011;44117;57.142;24.826;2022-11-20T02:00:22;10.05;;;5.30;;
58308;SDS011;44117;57.142;24.826;2022-11-20T02:03:03;10.02;;;5.13;;
58308;SDS011;44117;57.142;24.826;2022-11-20T02:05:35;11.43;;;6.20;;
58308;SDS011;44117;57.142;24.826;2022-11-20T02:08:23;9.23;;;5.28;;
58308;SDS011;44117;57.142;24.826;2022-11-20T02:10:50;10.88;;;5.43;;
58308;SDS011;44117;57.142;24.826;2022-11-20T02:13:18;13.15;;;5.82;;
58308;SDS011;44117;57.142;24.826;2022-11-20T02:16:03;9.45;;;5.22;;
58308;SDS011;44117;57.142;24.826;2022-11-20T02:18:34;10.80;;;5.60;;
58308;SDS011;44117;57.142;24.826;2022-11-20T02:21:05;8.00;;;4.85;;
58308;SDS011;44117;57.142;24.826;2022-11-20T02:23:50;9.82;;;6.05;;
58308;SDS011;44117;57.142;24.826;2022-11-20T02:26:21;11.43;;;6.07;;
58308;SDS011;44117;57.142;24.826;2022-11-20T02:28:50;9.82;;;5.47;;
58308;SDS011;44117;57.142;24.826;2022-11-20T02:31:17;12.88;;;5.40;;
58308;SDS011;44117;57.142;24.826;2022-11-20T02:33:45;8.85;;;5.10;;
58308;SDS011;44117;57.142;24.826;2022-11-20T02:36:14;8.82;;;4.90;;
58308;SDS011;44117;57.142;24.826;2022-11-20T02:38:42;9.25;;;5.05;;
58308;SDS011;44117;57.142;24.826;2022-11-20T02:41:10;9.05;;;4.85;;
58308;SDS011;44117;57.142;24.826;2022-11-20T02:43:37;11.52;;;4.60;;
58308;SDS011;44117;57.142;24.826;2022-11-20T02:46:06;6.47;;;4.53;;
58308;SDS011;44117;57.142;24.826;2022-11-20T02:48:34;8.13;;;4.72;;
58308;SDS011;44117;57.142;24.826;2022-11-20T02:51:01;8.75;;;5.13;;
58308;SDS011;44117;57.142;24.826;2022-11-20T02:53:29;11.15;;;5.35;;
58308;SDS011;44117;57.142;24.826;2022-11-20T02:55:56;10.50;;;5.95;;
58308;SDS011;44117;57.142;24.826;2022-11-20T02:58:23;9.07;;;4.95;;
58308;SDS011;44117;57.142;24.826;2022-11-20T03:00:51;7.75;;;5.47;;
58308;SDS011;44117;57.142;24.826;2022-11-20T03:03:19;10.13;;;4.88;;
58308;SDS011;44117;57.142;24.826;2022-11-20T03:05:46;7.72;;;4.93;;
58308;SDS011;44117;57.142;24.826;2022-11-20T03:08:13;7.68;;;4.40;;
58308;SDS011;44117;57.142;24.826;2022-11-20T03:10:40;9.00;;;4.78;;
58308;SDS011;44117;57.142;24.826;2022-11-20T03:13:08;8.48;;;4.72;;
58308;SDS011;44117;57.142;24.826;2022-11-20T03:15:35;7.78;;;4.40;;
58308;SDS011;44117;57.142;24.826;2022-11-20T03:18:03;8.57;;;4.50;;
58308;SDS011;44117;57.142;24.826;2022-11-20T03:20:31;9.52;;;5.22;;
58308;SDS011;44117;57.142;24.826;2022-11-20T03:23:00;8.65;;;4.13;;
58308;SDS011;44117;57.142;24.826;2022-11-20T03:25:27;6.82;;;4.63;;
58308;SDS011;44117;57.142;24.826;2022-11-20T03:27:54;9.30;;;5.20;;
58308;SDS011;44117;57.142;24.826;2022-11-20T03:30:22;6.53;;;3.90;;
58308;SDS011;44117;57.142;24.826;2022-11-20T03:32:55;15.48;;;7.00;;
58308;SDS011;44117;57.142;24.826;2022-11-20T03:35:23;12.90;;;8.65;;
58308;SDS011;44117;57.142;24.826;2022-11-20T03:37:50;11.02;;;6.18;;
58308;SDS011;44117;57.142;24.826;2022-11-20T03:40:17;12.50;;;7.25;;
58308;SDS011;44117;57.142;24.826;2022-11-20T03:42:44;11.65;;;6.97;;
58308;SDS011;44117;57.142;24.826;2022-11-20T03:45:16;11.07;;;5.75;;
58308;SDS011;44117;57.142;24.826;2022-11-20T03:47:44;9.07;;;4.82;;
58308;SDS011;44117;57.142;24.826;2022-11-20T03:50:13;7.28;;;5.35;;
58308;SDS011;44117;57.142;24.826;2022-11-20T03:52:40;8.85;;;5.15;;
58308;SDS011;44117;57.142;24.826;2022-11-20T03:55:08;8.80;;;4.80;;
58308;SDS011;44117;57.142;24.826;2022-11-20T03:57:35;8.23;;;4.70;;
58308;SDS011;44117;57.142;24.826;2022-11-20T04:00:03;7.70;;;4.85;;
58308;SDS011;44117;57.142;24.826;2022-11-20T04:02:31;11.48;;;6.20;;
58308;SDS011;44117;57.142;24.826;2022-11-20T04:04:59;10.95;;;5.65;;
58308;SDS011;44117;57.142;24.826;2022-11-20T04:07:26;9.85;;;6.20;;
58308;SDS011;44117;57.142;24.826;2022-11-20T04:09:53;7.82;;;4.13;;
58308;SDS011;44117;57.142;24.826;2022-11-20T04:12:20;8.85;;;5.13;;
58308;SDS011;44117;57.142;24.826;2022-11-20T04:14:48;20.13;;;10.35;;
58308;SDS011;44117;57.142;24.826;2022-11-20T04:17:15;10.38;;;5.38;;
58308;SDS011;44117;57.142;24.826;2022-11-20T04:19:42;10.18;;;6.28;;
58308;SDS011;44117;57.142;24.826;2022-11-20T04:22:10;8.10;;;4.43;;
58308;SDS011;44117;57.142;24.826;2022-11-20T04:24:38;8.43;;;5.13;;
58308;SDS011;44117;57.142;24.826;2022-11-20T04:27:05;9.93;;;4.30;;
58308;SDS011;44117;57.142;24.826;2022-11-20T04:29:33;10.43;;;6.10;;
58308;SDS011;44117;57.142;24.826;2022-11-20T04:32:00;10.95;;;6.75;;
58308;SDS011;44117;57.142;24.826;2022-11-20T04:34:27;6.70;;;4.40;;
58308;SDS011;44117;57.142;24.826;2022-11-20T04:36:54;12.90;;;6.75;;
58308;SDS011;44117;57.142;24.826;2022-11-20T04:39:22;9.10;;;5.30;;
58308;SDS011;44117;57.142;24.826;2022-11-20T04:41:49;13.77;;;7.00;;
58308;SDS011;44117;57.142;24.826;2022-11-20T04:44:36;11.48;;;6.45;;
58308;SDS011;44117;57.142;24.826;2022-11-20T04:47:04;11.38;;;8.38;;
58308;SDS011;44117;57.142;24.826;2022-11-20T04:49:31;31.90;;;15.80;;
58308;SDS011;44117;57.142;24.826;2022-11-20T04:51:59;52.45;;;19.13;;
58308;SDS011;44117;57.142;24.826;2022-11-20T04:54:26;27.30;;;17.83;;
58308;SDS011;44117;57.142;24.826;2022-11-20T04:56:53;18.83;;;9.88;;
58308;SDS011;44117;57.142;24.826;2022-11-20T04:59:20;29.40;;;14.32;;
58308;SDS011;44117;57.142;24.826;2022-11-20T05:01:48;46.40;;;20.38;;
58308;SDS011;44117;57.142;24.826;2022-11-20T05:04:15;52.13;;;22.23;;
58308;SDS011;44117;57.142;24.826;2022-11-20T05:06:43;37.83;;;18.00;;
58308;SDS011;44117;57.142;24.826;2022-11-20T05:09:12;16.00;;;8.40;;
58308;SDS011;44117;57.142;24.826;2022-11-20T05:11:39;31.63;;;15.93;;
58308;SDS011;44117;57.142;24.826;2022-11-20T05:14:07;21.50;;;10.70;;
58308;SDS011;44117;57.142;24.826;2022-11-20T05:16:34;24.85;;;10.85;;
58308;SDS011;44117;57.142;24.826;2022-11-20T05:19:02;21.85;;;12.10;;
58308;SDS011;44117;57.142;24.826;2022-11-20T05:21:30;15.13;;;10.00;;
58308;SDS011;44117;57.142;24.826;2022-11-20T05:23:58;19.00;;;12.07;;
58308;SDS011;44117;57.142;24.826;2022-11-20T05:26:25;18.63;;;11.82;;
58308;SDS011;44117;57.142;24.826;2022-11-20T05:28:53;15.15;;;8.48;;
58308;SDS011;44117;57.142;24.826;2022-11-20T05:31:21;21.55;;;12.80;;
58308;SDS011;44117;57.142;24.826;2022-11-20T05:33:54;20.90;;;11.90;;
58308;SDS011;44117;57.142;24.826;2022-11-20T05:36:23;30.63;;;14.07;;
58308;SDS011;44117;57.142;24.826;2022-11-20T05:38:50;24.13;;;14.00;;
58308;SDS011;44117;57.142;24.826;2022-11-20T05:41:25;15.45;;;10.38;;
58308;SDS011;44117;57.142;24.826;2022-11-20T05:43:52;47.10;;;22.60;;
58308;SDS011;44117;57.142;24.826;2022-11-20T05:46:20;14.88;;;8.95;;
58308;SDS011;44117;57.142;24.826;2022-11-20T05:48:54;18.45;;;11.80;;
58308;SDS011;44117;57.142;24.826;2022-11-20T05:51:22;20.05;;;11.30;;
58308;SDS011;44117;57.142;24.826;2022-11-20T05:53:51;16.08;;;9.85;;
58308;SDS011;44117;57.142;24.826;2022-11-20T05:56:19;13.65;;;7.80;;
58308;SDS011;44117;57.142;24.826;2022-11-20T05:58:48;15.40;;;7.43;;
58308;SDS011;44117;57.142;24.826;2022-11-20T06:01:19;14.77;;;7.25;;
58308;SDS011;44117;57.142;24.826;2022-11-20T06:03:49;16.52;;;9.52;;
58308;SDS011;44117;57.142;24.826;2022-11-20T06:06:17;15.13;;;8.57;;
58308;SDS011;44117;57.142;24.826;2022-11-20T06:08:46;13.95;;;8.02;;
58308;SDS011;44117;57.142;24.826;2022-11-20T06:11:14;15.65;;;8.45;;
58308;SDS011;44117;57.142;24.826;2022-11-20T06:13:42;19.08;;;9.90;;
58308;SDS011;44117;57.142;24.826;2022-11-20T06:16:10;19.35;;;10.40;;
58308;SDS011;44117;57.142;24.826;2022-11-20T06:18:40;18.08;;;9.57;;
58308;SDS011;44117;57.142;24.826;2022-11-20T06:21:08;17.77;;;9.85;;
58308;SDS011;44117;57.142;24.826;2022-11-20T06:23:37;19.25;;;9.63;;
58308;SDS011;44117;57.142;24.826;2022-11-20T06:26:06;17.50;;;9.30;;
58308;SDS011;44117;57.142;24.826;2022-11-20T06:28:35;15.23;;;9.25;;
58308;SDS011;44117;57.142;24.826;2022-11-20T06:31:04;16.38;;;9.52;;
58308;SDS011;44117;57.142;24.826;2022-11-20T06:33:32;15.93;;;8.90;;
58308;SDS011;44117;57.142;24.826;2022-11-20T06:35:59;15.40;;;9.20;;
58308;SDS011;44117;57.142;24.826;2022-11-20T06:38:35;16.00;;;9.13;;
58308;SDS011;44117;57.142;24.826;2022-11-20T06:41:03;19.20;;;10.73;;
58308;SDS011;44117;57.142;24.826;2022-11-20T06:43:31;17.52;;;9.45;;
58308;SDS011;44117;57.142;24.826;2022-11-20T06:45:59;15.95;;;9.65;;
58308;SDS011;44117;57.142;24.826;2022-11-20T06:48:26;14.80;;;9.23;;
58308;SDS011;44117;57.142;24.826;2022-11-20T06:50:55;13.98;;;7.82;;
58308;SDS011;44117;57.142;24.826;2022-11-20T06:53:23;14.70;;;8.82;;
58308;SDS011;44117;57.142;24.826;2022-11-20T06:55:50;16.38;;;9.85;;
58308;SDS011;44117;57.142;24.826;2022-11-20T06:58:18;18.92;;;9.43;;
58308;SDS011;44117;57.142;24.826;2022-11-20T07:00:45;18.92;;;9.43;;
58308;SDS011;44117;57.142;24.826;2022-11-20T07:03:13;13.85;;;7.20;;
58308;SDS011;44117;57.142;24.826;2022-11-20T07:05:40;22.52;;;9.07;;
58308;SDS011;44117;57.142;24.826;2022-11-20T07:08:09;17.15;;;9.50;;
58308;SDS011;44117;57.142;24.826;2022-11-20T07:10:36;15.85;;;9.05;;
58308;SDS011;44117;57.142;24.826;2022-11-20T07:13:04;19.92;;;11.07;;
58308;SDS011;44117;57.142;24.826;2022-11-20T07:15:31;23.05;;;12.30;;
58308;SDS011;44117;57.142;24.826;2022-11-20T07:17:59;17.50;;;9.75;;
58308;SDS011;44117;57.142;24.826;2022-11-20T07:20:26;20.42;;;10.50;;
58308;SDS011;44117;57.142;24.826;2022-11-20T07:22:54;20.50;;;12.38;;
58308;SDS011;44117;57.142;24.826;2022-11-20T07:25:22;20.75;;;12.05;;
58308;SDS011;44117;57.142;24.826;2022-11-20T07:27:59;17.58;;;9.43;;
58308;SDS011;44117;57.142;24.826;2022-11-20T07:30:27;21.48;;;11.43;;
58308;SDS011;44117;57.142;24.826;2022-11-20T07:32:55;15.85;;;8.70;;
58308;SDS011;44117;57.142;24.826;2022-11-20T07:35:23;25.38;;;13.38;;
58308;SDS011;44117;57.142;24.826;2022-11-20T07:37:51;16.52;;;9.77;;
58308;SDS011;44117;57.142;24.826;2022-11-20T07:40:18;22.58;;;12.35;;
58308;SDS011;44117;57.142;24.826;2022-11-20T07:42:49;20.20;;;11.57;;
58308;SDS011;44117;57.142;24.826;2022-11-20T07:45:20;18.67;;;9.77;;
58308;SDS011;44117;57.142;24.826;2022-11-20T07:47:49;15.43;;;8.80;;
58308;SDS011;44117;57.142;24.826;2022-11-20T07:50:17;20.60;;;12.95;;
58308;SDS011;44117;57.142;24.826;2022-11-20T07:52:45;15.93;;;8.77;;
58308;SDS011;44117;57.142;24.826;2022-11-20T07:55:12;20.58;;;10.02;;
58308;SDS011;44117;57.142;24.826;2022-11-20T07:57:40;16.30;;;10.57;;
58308;SDS011;44117;57.142;24.826;2022-11-20T08:00:08;15.18;;;9.45;;
58308;SDS011;44117;57.142;24.826;2022-11-20T08:02:37;18.45;;;11.85;;
58308;SDS011;44117;57.142;24.826;2022-11-20T08:05:06;15.93;;;9.80;;
58308;SDS011;44117;57.142;24.826;2022-11-20T08:07:37;21.67;;;11.80;;
58308;SDS011;44117;57.142;24.826;2022-11-20T08:10:06;19.85;;;9.32;;
58308;SDS011;44117;57.142;24.826;2022-11-20T08:12:34;16.65;;;8.88;;
58308;SDS011;44117;57.142;24.826;2022-11-20T08:15:20;15.80;;;9.00;;
58308;SDS011;44117;57.142;24.826;2022-11-20T08:17:47;17.63;;;10.40;;
58308;SDS011;44117;57.142;24.826;2022-11-20T08:20:34;17.13;;;9.57;;
58308;SDS011;44117;57.142;24.826;2022-11-20T08:23:03;20.95;;;10.73;;
58308;SDS011;44117;57.142;24.826;2022-11-20T08:25:33;13.50;;;8.80;;
58308;SDS011;44117;57.142;24.826;2022-11-20T08:28:02;18.48;;;9.90;;
58308;SDS011;44117;57.142;24.826;2022-11-20T08:30:45;14.82;;;9.23;;
58308;SDS011;44117;57.142;24.826;2022-11-20T08:33:12;15.68;;;8.13;;
58308;SDS011;44117;57.142;24.826;2022-11-20T08:35:39;14.48;;;7.68;;
58308;SDS011;44117;57.142;24.826;2022-11-20T08:38:08;16.27;;;8.43;;
58308;SDS011;44117;57.142;24.826;2022-11-20T08:40:35;14.98;;;8.77;;
58308;SDS011;44117;57.142;24.826;2022-11-20T08:43:03;13.40;;;7.75;;
58308;SDS011;44117;57.142;24.826;2022-11-20T08:45:30;13.63;;;8.48;;
58308;SDS011;44117;57.142;24.826;2022-11-20T08:48:03;13.10;;;7.53;;
58308;SDS011;44117;57.142;24.826;2022-11-20T08:50:31;17.02;;;8.80;;
58308;SDS011;44117;57.142;24.826;2022-11-20T08:53:05;15.57;;;8.45;;
58308;SDS011;44117;57.142;24.826;2022-11-20T08:55:33;14.13;;;8.80;;
58308;SDS011;44117;57.142;24.826;2022-11-20T08:58:03;15.70;;;8.70;;
58308;SDS011;44117;57.142;24.826;2022-11-20T09:00:31;35.17;;;19.88;;
58308;SDS011;44117;57.142;24.826;2022-11-20T09:02:59;16.90;;;9.45;;
58308;SDS011;44117;57.142;24.826;2022-11-20T09:05:27;15.40;;;8.60;;
58308;SDS011;44117;57.142;24.826;2022-11-20T09:07:58;16.00;;;10.77;;
58308;SDS011;44117;57.142;24.826;2022-11-20T09:10:26;15.30;;;8.63;;
58308;SDS011;44117;57.142;24.826;2022-11-20T09:12:54;17.35;;;9.77;;
58308;SDS011;44117;57.142;24.826;2022-11-20T09:15:23;13.60;;;9.43;;
58308;SDS011;44117;57.142;24.826;2022-11-20T09:17:55;16.95;;;9.73;;
58308;SDS011;44117;57.142;24.826;2022-11-20T09:20:25;35.20;;;19.17;;
58308;SDS011;44117;57.142;24.826;2022-11-20T09:22:53;29.77;;;16.13;;
58308;SDS011;44117;57.142;24.826;2022-11-20T09:25:20;21.40;;;12.32;;
58308;SDS011;44117;57.142;24.826;2022-11-20T09:27:47;16.85;;;9.90;;
58308;SDS011;44117;57.142;24.826;2022-11-20T09:30:22;15.20;;;9.95;;
58308;SDS011;44117;57.142;24.826;2022-11-20T09:32:49;21.95;;;14.00;;
58308;SDS011;44117;57.142;24.826;2022-11-20T09:35:16;21.05;;;13.68;;
58308;SDS011;44117;57.142;24.826;2022-11-20T09:37:44;19.10;;;14.00;;
58308;SDS011;44117;57.142;24.826;2022-11-20T09:40:22;16.95;;;9.60;;
58308;SDS011;44117;57.142;24.826;2022-11-20T09:45:37;19.58;;;11.75;;
58308;SDS011;44117;57.142;24.826;2022-11-20T09:53:55;28.52;;;16.85;;
58308;SDS011;44117;57.142;24.826;2022-11-20T09:56:51;20.25;;;11.82;;
58308;SDS011;44117;57.142;24.826;2022-11-20T10:02:02;15.02;;;9.25;;
58308;SDS011;44117;57.142;24.826;2022-11-20T10:04:49;37.72;;;17.85;;
58308;SDS011;44117;57.142;24.826;2022-11-20T10:10:15;31.02;;;16.38;;
58308;SDS011;44117;57.142;24.826;2022-11-20T10:18:32;30.15;;;17.10;;
58308;SDS011;44117;57.142;24.826;2022-11-20T10:24:33;21.58;;;12.98;;
58308;SDS011;44117;57.142;24.826;2022-11-20T10:27:45;23.50;;;12.80;;
58308;SDS011;44117;57.142;24.826;2022-11-20T10:30:16;23.42;;;12.43;;
58308;SDS011;44117;57.142;24.826;2022-11-20T10:32:47;21.88;;;12.90;;
58308;SDS011;44117;57.142;24.826;2022-11-20T10:36:09;24.88;;;13.82;;
58308;SDS011;44117;57.142;24.826;2022-11-20T10:38:54;23.33;;;14.45;;
58308;SDS011;44117;57.142;24.826;2022-11-20T10:41:58;22.88;;;13.45;;
58308;SDS011;44117;57.142;24.826;2022-11-20T10:44:27;24.50;;;15.25;;
58308;SDS011;44117;57.142;24.826;2022-11-20T10:47:20;29.20;;;17.25;;
58308;SDS011;44117;57.142;24.826;2022-11-20T10:49:48;27.13;;;15.32;;
58308;SDS011;44117;57.142;24.826;2022-11-20T10:52:25;30.63;;;16.50;;
58308;SDS011;44117;57.142;24.826;2022-11-20T10:55:12;26.70;;;14.70;;
58308;SDS011;44117;57.142;24.826;2022-11-20T11:00:30;27.52;;;14.65;;
58308;SDS011;44117;57.142;24.826;2022-11-20T11:02:57;35.92;;;17.55;;
58308;SDS011;44117;57.142;24.826;2022-11-20T11:08:13;37.20;;;16.65;;
58308;SDS011;44117;57.142;24.826;2022-11-20T11:13:33;28.30;;;14.23;;
58308;SDS011;44117;57.142;24.826;2022-11-20T11:16:00;25.48;;;12.65;;
58308;SDS011;44117;57.142;24.826;2022-11-20T11:18:30;25.00;;;14.10;;
58308;SDS011;44117;57.142;24.826;2022-11-20T11:21:02;21.27;;;11.85;;
58308;SDS011;44117;57.142;24.826;2022-11-20T11:23:41;29.85;;;15.75;;
58308;SDS011;44117;57.142;24.826;2022-11-20T11:26:20;25.60;;;16.13;;
58308;SDS011;44117;57.142;24.826;2022-11-20T11:31:33;25.67;;;16.00;;
58308;SDS011;44117;57.142;24.826;2022-11-20T11:34:08;27.77;;;14.60;;
58308;SDS011;44117;57.142;24.826;2022-11-20T11:36:40;36.97;;;17.55;;
58308;SDS011;44117;57.142;24.826;2022-11-20T11:39:12;26.20;;;14.48;;
58308;SDS011;44117;57.142;24.826;2022-11-20T11:41:42;29.85;;;14.40;;
58308;SDS011;44117;57.142;24.826;2022-11-20T11:44:27;28.23;;;16.63;;
58308;SDS011;44117;57.142;24.826;2022-11-20T11:47:21;21.27;;;12.35;;
58308;SDS011;44117;57.142;24.826;2022-11-20T12:04:29;30.85;;;15.45;;
58308;SDS011;44117;57.142;24.826;2022-11-20T12:06:57;24.50;;;13.77;;
58308;SDS011;44117;57.142;24.826;2022-11-20T12:09:48;29.83;;;16.43;;
58308;SDS011;44117;57.142;24.826;2022-11-20T12:12:21;23.77;;;14.13;;
58308;SDS011;44117;57.142;24.826;2022-11-20T12:14:54;20.77;;;11.68;;
58308;SDS011;44117;57.142;24.826;2022-11-20T12:17:23;19.75;;;11.13;;
58308;SDS011;44117;57.142;24.826;2022-11-20T12:19:50;22.48;;;13.32;;
58308;SDS011;44117;57.142;24.826;2022-11-20T12:24:49;27.05;;;14.05;;
58308;SDS011;44117;57.142;24.826;2022-11-20T12:30:24;24.05;;;13.05;;
58308;SDS011;44117;57.142;24.826;2022-11-20T12:32:55;23.42;;;12.80;;
58308;SDS011;44117;57.142;24.826;2022-11-20T12:35:55;23.52;;;12.55;;
58308;SDS011;44117;57.142;24.826;2022-11-20T12:41:18;22.98;;;14.45;;
58308;SDS011;44117;57.142;24.826;2022-11-20T12:44:14;23.90;;;12.70;;
58308;SDS011;44117;57.142;24.826;2022-11-20T12:50:06;22.63;;;12.20;;
58308;SDS011;44117;57.142;24.826;2022-11-20T13:01:55;18.08;;;10.18;;
58308;SDS011;44117;57.142;24.826;2022-11-20T13:07:05;16.70;;;9.43;;
58308;SDS011;44117;57.142;24.826;2022-11-20T13:09:38;20.52;;;11.30;;
58308;SDS011;44117;57.142;24.826;2022-11-20T13:18:22;20.00;;;10.82;;
58308;SDS011;44117;57.142;24.826;2022-11-20T13:20:49;20.73;;;11.55;;
58308;SDS011;44117;57.142;24.826;2022-11-20T13:23:24;24.25;;;12.13;;
58308;SDS011;44117;57.142;24.826;2022-11-20T13:32:00;16.80;;;8.88;;
58308;SDS011;44117;57.142;24.826;2022-11-20T13:34:34;17.23;;;10.07;;
58308;SDS011;44117;57.142;24.826;2022-11-20T13:37:02;26.58;;;14.00;;
58308;SDS011;44117;57.142;24.826;2022-11-20T13:39:34;32.22;;;13.65;;
58308;SDS011;44117;57.142;24.826;2022-11-20T13:42:18;37.80;;;15.93;;
58308;SDS011;44117;57.142;24.826;2022-11-20T13:45:00;22.80;;;10.90;;
58308;SDS011;44117;57.142;24.826;2022-11-20T13:47:29;25.60;;;10.70;;
58308;SDS011;44117;57.142;24.826;2022-11-20T13:49:57;39.17;;;17.05;;
58308;SDS011;44117;57.142;24.826;2022-11-20T13:55:23;41.90;;;17.17;;
58308;SDS011;44117;57.142;24.826;2022-11-20T14:03:49;35.97;;;16.77;;
58308;SDS011;44117;57.142;24.826;2022-11-20T14:06:43;24.23;;;10.57;;
58308;SDS011;44117;57.142;24.826;2022-11-20T14:09:25;28.15;;;12.68;;
58308;SDS011;44117;57.142;24.826;2022-11-20T14:11:54;32.80;;;14.15;;
58308;SDS011;44117;57.142;24.826;2022-11-20T14:14:25;22.27;;;11.45;;
58308;SDS011;44117;57.142;24.826;2022-11-20T14:19:33;22.73;;;10.90;;
58308;SDS011;44117;57.142;24.826;2022-11-20T14:22:17;25.23;;;11.60;;
58308;SDS011;44117;57.142;24.826;2022-11-20T14:24:47;25.08;;;12.18;;
58308;SDS011;44117;57.142;24.826;2022-11-20T14:27:26;26.77;;;11.82;;
58308;SDS011;44117;57.142;24.826;2022-11-20T14:29:54;19.38;;;10.77;;
58308;SDS011;44117;57.142;24.826;2022-11-20T14:32:21;79.65;;;31.40;;
58308;SDS011;44117;57.142;24.826;2022-11-20T14:34:55;26.92;;;12.73;;
58308;SDS011;44117;57.142;24.826;2022-11-20T14:37:30;16.40;;;8.73;;
58308;SDS011;44117;57.142;24.826;2022-11-20T14:42:32;32.45;;;14.38;;
58308;SDS011;44117;57.142;24.826;2022-11-20T14:45:00;20.20;;;10.73;;
58308;SDS011;44117;57.142;24.826;2022-11-20T14:47:29;26.17;;;13.20;;
58308;SDS011;44117;57.142;24.826;2022-11-20T14:49:57;32.55;;;14.77;;
58308;SDS011;44117;57.142;24.826;2022-11-20T14:52:32;49.13;;;21.17;;
58308;SDS011;44117;57.142;24.826;2022-11-20T14:54:59;29.25;;;11.88;;
58308;SDS011;44117;57.142;24.826;2022-11-20T14:57:28;23.13;;;12.23;;
58308;SDS011;44117;57.142;24.826;2022-11-20T15:02:41;33.15;;;13.32;;
58308;SDS011;44117;57.142;24.826;2022-11-20T15:05:09;36.20;;;16.83;;
58308;SDS011;44117;57.142;24.826;2022-11-20T15:07:40;19.35;;;11.02;;
58308;SDS011;44117;57.142;24.826;2022-11-20T15:12:49;30.70;;;13.17;;
58308;SDS011;44117;57.142;24.826;2022-11-20T15:15:23;37.42;;;14.10;;
58308;SDS011;44117;57.142;24.826;2022-11-20T15:17:57;59.08;;;22.88;;
58308;SDS011;44117;57.142;24.826;2022-11-20T15:20:26;27.35;;;12.32;;
58308;SDS011;44117;57.142;24.826;2022-11-20T15:22:56;37.75;;;18.63;;
58308;SDS011;44117;57.142;24.826;2022-11-20T15:25:24;38.75;;;19.65;;
58308;SDS011;44117;57.142;24.826;2022-11-20T15:27:52;21.98;;;11.85;;
58308;SDS011;44117;57.142;24.826;2022-11-20T15:30:22;37.40;;;17.38;;
58308;SDS011;44117;57.142;24.826;2022-11-20T15:32:50;23.42;;;11.43;;
58308;SDS011;44117;57.142;24.826;2022-11-20T15:35:18;17.75;;;9.10;;
58308;SDS011;44117;57.142;24.826;2022-11-20T15:37:45;15.40;;;8.77;;
58308;SDS011;44117;57.142;24.826;2022-11-20T15:40:12;18.00;;;10.02;;
58308;SDS011;44117;57.142;24.826;2022-11-20T15:42:40;27.17;;;14.68;;
58308;SDS011;44117;57.142;24.826;2022-11-20T15:45:27;54.42;;;24.05;;
58308;SDS011;44117;57.142;24.826;2022-11-20T15:48:08;23.45;;;11.00;;
58308;SDS011;44117;57.142;24.826;2022-11-20T15:51:01;27.30;;;15.20;;
58308;SDS011;44117;57.142;24.826;2022-11-20T15:53:36;24.13;;;12.35;;
58308;SDS011;44117;57.142;24.826;2022-11-20T15:56:13;14.60;;;9.13;;
58308;SDS011;44117;57.142;24.826;2022-11-20T15:58:41;17.83;;;9.93;;
58308;SDS011;44117;57.142;24.826;2022-11-20T16:01:12;20.20;;;10.45;;
58308;SDS011;44117;57.142;24.826;2022-11-20T16:03:42;36.13;;;18.17;;
58308;SDS011;44117;57.142;24.826;2022-11-20T16:06:10;26.88;;;11.88;;
58308;SDS011;44117;57.142;24.826;2022-11-20T16:08:37;20.83;;;9.57;;
58308;SDS011;44117;57.142;24.826;2022-11-20T16:11:04;16.08;;;8.93;;
58308;SDS011;44117;57.142;24.826;2022-11-20T16:13:32;16.00;;;8.55;;
58308;SDS011;44117;57.142;24.826;2022-11-20T16:16:21;25.80;;;11.40;;
58308;SDS011;44117;57.142;24.826;2022-11-20T16:18:52;18.33;;;10.13;;
58308;SDS011;44117;57.142;24.826;2022-11-20T16:21:19;15.27;;;7.85;;
58308;SDS011;44117;57.142;24.826;2022-11-20T16:23:46;15.32;;;8.57;;
58308;SDS011;44117;57.142;24.826;2022-11-20T16:26:15;15.88;;;9.30;;